Time;durP1;ratioP1;P1;durP2;ratioP2;P2;SDS_P1;SDS_P2;PMS_P1;PMS_P2;Temp;Humidity;BMP_temperature;BMP_pressure;BME280_temperature;BME280_humidity;BME280_pressure;Samples;Min_cycle;Max_cycle;Signal;HPM_P1;HPM_P2
2024/04/06 00:02:21;;;;;;;4.32;1.63;;;;;;;;;;5007037;28;20799;-58
2024/04/06 00:04:47;;;;;;;4.15;1.58;;;;;;;;;;5025647;28;20050;-61
2024/04/06 00:07:13;;;;;;;4.90;1.98;;;;;;;;;;5027472;28;20033;-62
2024/04/06 00:09:39;;;;;;;5.35;1.60;;;;;;;;;;5029983;28;20041;-59
2024/04/06 00:12:06;;;;;;;3.13;1.50;;;;;;;;;;5030022;28;20068;-60
2024/04/06 00:14:32;;;;;;;3.53;1.67;;;;;;;;;;5028761;28;20037;-62
2024/04/06 00:16:58;;;;;;;4.70;1.58;;;;;;;;;;5026573;28;20029;-61
2024/04/06 00:19:24;;;;;;;4.43;1.98;;;;;;;;;;5034048;28;20034;-61
2024/04/06 00:21:49;;;;;;;7.28;2.20;;;;;;;;;;5028402;28;20056;-56
2024/04/06 00:24:16;;;;;;;3.38;2.15;;;;;;;;;;5029567;28;20517;-59
2024/04/06 00:26:44;;;;;;;4.07;1.80;;;;;;;;;;5028299;28;20061;-61
2024/04/06 00:29:10;;;;;;;3.28;1.67;;;;;;;;;;5029890;28;20034;-60
2024/04/06 00:31:36;;;;;;;2.92;2.20;;;;;;;;;;5029882;28;20038;-61
2024/04/06 00:34:02;;;;;;;3.67;1.67;;;;;;;;;;5044513;28;20065;-61
2024/04/06 00:36:31;;;;;;;3.35;1.90;;;;;;;;;;5043988;28;20136;-60
2024/04/06 00:38:58;;;;;;;4.28;1.75;;;;;;;;;;5027988;28;20048;-59
2024/04/06 00:41:23;;;;;;;4.93;2.63;;;;;;;;;;5027585;28;20132;-60
2024/04/06 00:43:49;;;;;;;3.55;2.08;;;;;;;;;;5027162;28;20140;-64
2024/04/06 00:46:16;;;;;;;3.40;2.08;;;;;;;;;;5027762;28;20033;-60
2024/04/06 00:48:42;;;;;;;4.28;2.13;;;;;;;;;;5028554;28;20029;-60
2024/04/06 00:51:08;;;;;;;3.65;2.10;;;;;;;;;;5028288;28;20092;-60
2024/04/06 00:53:34;;;;;;;7.70;2.30;;;;;;;;;;5027558;28;20063;-61
2024/04/06 00:56:00;;;;;;;6.30;2.20;;;;;;;;;;5028681;28;20611;-60
2024/04/06 00:58:27;;;;;;;4.68;2.72;;;;;;;;;;5028490;28;20079;-60
2024/04/06 01:00:52;;;;;;;8.18;2.17;;;;;;;;;;5029437;28;20064;-58
2024/04/06 01:03:18;;;;;;;5.47;2.15;;;;;;;;;;5027816;28;20561;-60
2024/04/06 01:05:44;;;;;;;3.85;2.25;;;;;;;;;;5029096;28;20058;-61
2024/04/06 01:08:10;;;;;;;4.75;2.90;;;;;;;;;;5027223;28;20124;-61
2024/04/06 01:10:35;;;;;;;9.38;2.58;;;;;;;;;;5029397;28;20033;-60
2024/04/06 01:13:01;;;;;;;5.53;2.70;;;;;;;;;;5027248;28;20119;-61
2024/04/06 01:15:32;;;;;;;5.63;2.85;;;;;;;;;;5025145;28;20033;-62
2024/04/06 01:17:58;;;;;;;4.85;3.00;;;;;;;;;;5026686;28;20041;-61
2024/04/06 01:20:25;;;;;;;6.47;3.13;;;;;;;;;;5042855;28;20692;-59
2024/04/06 01:22:51;;;;;;;4.93;2.92;;;;;;;;;;5027535;28;20424;-60
2024/04/06 01:25:17;;;;;;;7.38;3.22;;;;;;;;;;5026997;28;20610;-61
2024/04/06 01:27:47;;;;;;;6.80;2.97;;;;;;;;;;5027214;28;20638;-61
2024/04/06 01:30:13;;;;;;;4.70;2.90;;;;;;;;;;5026557;28;20033;-64
2024/04/06 01:32:49;;;;;;;6.28;3.33;;;;;;;;;;5028539;28;20033;-60
2024/04/06 01:35:15;;;;;;;9.27;3.22;;;;;;;;;;5028675;28;20090;-60
2024/04/06 01:37:41;;;;;;;4.28;2.45;;;;;;;;;;5027479;28;20073;-59
2024/04/06 01:40:07;;;;;;;6.75;3.65;;;;;;;;;;5026969;28;20076;-61
2024/04/06 01:42:36;;;;;;;6.95;3.15;;;;;;;;;;5028532;28;20037;-60
2024/04/06 01:45:02;;;;;;;6.57;3.33;;;;;;;;;;5029135;28;20508;-60
2024/04/06 01:47:30;;;;;;;6.18;3.47;;;;;;;;;;5027446;28;20048;-62
2024/04/06 01:49:56;;;;;;;7.68;3.70;;;;;;;;;;5027537;28;20033;-60
2024/04/06 01:52:22;;;;;;;6.05;3.47;;;;;;;;;;5027053;28;20124;-58
2024/04/06 01:54:48;;;;;;;8.57;3.88;;;;;;;;;;5026637;28;20128;-59
2024/04/06 01:57:14;;;;;;;9.05;3.90;;;;;;;;;;5043545;28;20082;-60
2024/04/06 01:59:40;;;;;;;7.45;4.20;;;;;;;;;;5027234;28;20818;-61
2024/04/06 02:02:06;;;;;;;7.60;3.92;;;;;;;;;;5027713;28;20402;-61
2024/04/06 02:04:32;;;;;;;9.73;4.53;;;;;;;;;;5043395;28;20056;-62
2024/04/06 02:06:58;;;;;;;13.60;5.05;;;;;;;;;;5028202;28;20128;-61
2024/04/06 02:09:23;;;;;;;7.18;3.67;;;;;;;;;;5009528;28;20095;-58
2024/04/06 02:11:49;;;;;;;9.65;4.43;;;;;;;;;;5006409;28;20479;-61
2024/04/06 02:14:15;;;;;;;7.80;4.13;;;;;;;;;;5029434;28;20037;-61
2024/04/06 02:16:41;;;;;;;8.90;4.80;;;;;;;;;;5022313;28;20033;-60
2024/04/06 02:19:07;;;;;;;9.90;4.47;;;;;;;;;;5027237;28;20037;-60
2024/04/06 02:21:32;;;;;;;11.70;4.65;;;;;;;;;;5027018;28;20041;-59
2024/04/06 02:23:58;;;;;;;6.70;4.38;;;;;;;;;;5026972;28;20041;-61
2024/04/06 02:26:24;;;;;;;9.38;4.68;;;;;;;;;;5027355;28;20029;-60
2024/04/06 02:28:50;;;;;;;13.00;4.30;;;;;;;;;;5025473;28;20045;-61
2024/04/06 02:31:15;;;;;;;9.85;4.75;;;;;;;;;;5024625;28;20468;-61
2024/04/06 02:33:42;;;;;;;6.85;4.07;;;;;;;;;;5025945;28;20041;-62
2024/04/06 02:36:07;;;;;;;8.90;4.20;;;;;;;;;;5027681;28;20381;-60
2024/04/06 02:38:34;;;;;;;9.23;3.80;;;;;;;;;;4993380;28;20100;-60
2024/04/06 02:41:00;;;;;;;7.72;4.15;;;;;;;;;;5005760;28;20533;-61
2024/04/06 02:43:25;;;;;;;8.00;4.30;;;;;;;;;;5005989;28;20594;-62
2024/04/06 02:45:51;;;;;;;7.60;4.65;;;;;;;;;;5006013;28;20041;-61
2024/04/06 02:48:17;;;;;;;9.52;4.28;;;;;;;;;;5025513;28;20100;-60
2024/04/06 02:50:43;;;;;;;8.57;5.00;;;;;;;;;;5025290;28;20663;-60
2024/04/06 02:53:08;;;;;;;10.40;4.88;;;;;;;;;;5027335;28;20021;-61
2024/04/06 02:55:34;;;;;;;10.90;4.65;;;;;;;;;;5027806;28;20033;-58
2024/04/06 02:58:00;;;;;;;8.15;4.40;;;;;;;;;;5025727;28;20051;-61
2024/04/06 03:00:26;;;;;;;9.52;4.28;;;;;;;;;;5026926;28;20231;-61
2024/04/06 03:02:51;;;;;;;9.60;4.45;;;;;;;;;;5026561;28;20063;-61
2024/04/06 03:05:18;;;;;;;8.93;4.35;;;;;;;;;;5008582;28;20045;-59
2024/04/06 03:07:44;;;;;;;9.02;4.60;;;;;;;;;;5025171;28;20056;-59
2024/04/06 03:10:10;;;;;;;6.90;4.30;;;;;;;;;;5041927;28;20033;-61
2024/04/06 03:12:37;;;;;;;8.85;4.88;;;;;;;;;;5015258;28;20168;-60
2024/04/06 03:15:03;;;;;;;9.52;4.53;;;;;;;;;;5022662;28;20044;-60
2024/04/06 03:17:29;;;;;;;9.13;4.82;;;;;;;;;;5024683;28;20105;-61
2024/04/06 03:19:55;;;;;;;8.23;4.75;;;;;;;;;;5026662;28;20061;-60
2024/04/06 03:22:21;;;;;;;6.78;4.10;;;;;;;;;;5026087;28;20122;-61
2024/04/06 03:24:47;;;;;;;8.93;4.22;;;;;;;;;;5026643;28;20048;-60
2024/04/06 03:27:13;;;;;;;10.98;5.18;;;;;;;;;;5026736;28;20038;-59
2024/04/06 03:29:38;;;;;;;8.30;5.07;;;;;;;;;;5026734;28;20422;-61
2024/04/06 03:32:07;;;;;;;8.00;4.00;;;;;;;;;;5026322;28;20125;-61
2024/04/06 03:34:33;;;;;;;9.52;3.45;;;;;;;;;;5025509;28;20131;-61
2024/04/06 03:36:58;;;;;;;10.38;4.32;;;;;;;;;;5025785;28;20124;-58
2024/04/06 03:39:24;;;;;;;7.63;3.97;;;;;;;;;;5026773;28;20488;-62
2024/04/06 03:41:50;;;;;;;7.50;3.83;;;;;;;;;;5026930;28;20083;-61
2024/04/06 03:44:15;;;;;;;11.98;4.55;;;;;;;;;;5024858;28;20460;-59
2024/04/06 03:46:41;;;;;;;8.32;4.72;;;;;;;;;;5008848;28;20033;-61
2024/04/06 03:49:07;;;;;;;10.63;4.72;;;;;;;;;;5025372;28;20501;-59
2024/04/06 03:51:33;;;;;;;11.02;5.00;;;;;;;;;;5024864;28;20065;-61
2024/04/06 03:53:58;;;;;;;6.38;4.18;;;;;;;;;;5040501;28;20033;-62
2024/04/06 03:56:24;;;;;;;14.05;5.00;;;;;;;;;;5026181;28;20108;-63
2024/04/06 03:58:53;;;;;;;9.77;4.70;;;;;;;;;;5041595;28;20042;-64
2024/04/06 04:01:18;;;;;;;6.63;4.10;;;;;;;;;;5026383;28;20053;-62
2024/04/06 04:03:46;;;;;;;7.38;4.15;;;;;;;;;;5040583;28;20042;-61
2024/04/06 04:06:12;;;;;;;8.23;4.38;;;;;;;;;;5026347;28;20033;-61
2024/04/06 04:08:38;;;;;;;9.65;4.55;;;;;;;;;;5025199;28;20662;-60
2024/04/06 04:11:04;;;;;;;14.05;4.60;;;;;;;;;;5026209;28;20037;-62
2024/04/06 04:13:29;;;;;;;6.95;4.32;;;;;;;;;;5025989;28;20033;-61
2024/04/06 04:15:55;;;;;;;9.13;4.70;;;;;;;;;;5025216;28;20065;-61
2024/04/06 04:18:21;;;;;;;10.63;4.72;;;;;;;;;;5024390;28;20500;-62
2024/04/06 04:20:46;;;;;;;8.48;4.30;;;;;;;;;;5024557;28;20088;-60
2024/04/06 04:23:15;;;;;;;8.05;4.57;;;;;;;;;;5040955;28;20124;-61
2024/04/06 04:25:41;;;;;;;13.50;5.32;;;;;;;;;;5024008;28;20049;-63
2024/04/06 04:28:09;;;;;;;8.88;5.05;;;;;;;;;;5024303;28;20124;-62
2024/04/06 04:30:35;;;;;;;11.45;4.93;;;;;;;;;;5026276;28;20122;-59
2024/04/06 04:33:01;;;;;;;8.00;4.28;;;;;;;;;;5026369;28;20172;-61
2024/04/06 04:35:27;;;;;;;7.40;3.90;;;;;;;;;;5026633;28;20037;-59
2024/04/06 04:37:55;;;;;;;10.10;4.85;;;;;;;;;;5025743;28;20034;-59
2024/04/06 04:40:21;;;;;;;10.48;5.05;;;;;;;;;;5025717;28;20529;-58
2024/04/06 04:42:46;;;;;;;8.32;4.75;;;;;;;;;;5027488;28;20148;-61
2024/04/06 04:45:13;;;;;;;9.13;4.43;;;;;;;;;;5037670;28;20085;-61
2024/04/06 04:47:39;;;;;;;11.30;5.18;;;;;;;;;;5004962;28;20119;-61
2024/04/06 04:50:05;;;;;;;12.15;4.72;;;;;;;;;;5007785;28;20080;-60
2024/04/06 04:52:31;;;;;;;11.55;5.10;;;;;;;;;;5024911;28;20030;-62
2024/04/06 04:54:57;;;;;;;11.23;4.65;;;;;;;;;;5014039;28;20039;-61
2024/04/06 04:57:23;;;;;;;10.52;5.18;;;;;;;;;;5029144;28;20041;-63
2024/04/06 04:59:49;;;;;;;13.30;5.70;;;;;;;;;;5029512;28;20092;-62
2024/04/06 05:02:15;;;;;;;10.98;4.90;;;;;;;;;;5044669;28;20044;-62
2024/04/06 05:04:41;;;;;;;12.43;6.00;;;;;;;;;;5029611;28;20033;-62
2024/04/06 05:07:07;;;;;;;8.57;4.78;;;;;;;;;;5007970;28;20044;-61
2024/04/06 05:09:33;;;;;;;8.57;4.93;;;;;;;;;;5009568;28;20417;-61
2024/04/06 05:11:59;;;;;;;9.57;5.13;;;;;;;;;;5009471;28;20521;-62
2024/04/06 05:14:25;;;;;;;15.30;5.70;;;;;;;;;;5009407;28;20033;-61
2024/04/06 05:16:51;;;;;;;11.18;5.63;;;;;;;;;;5016659;28;20025;-62
2024/04/06 05:19:16;;;;;;;12.05;5.47;;;;;;;;;;5009363;28;20030;-60
2024/04/06 05:21:42;;;;;;;11.27;5.72;;;;;;;;;;5009596;28;20532;-60
2024/04/06 05:24:12;;;;;;;12.63;6.22;;;;;;;;;;5028189;28;20048;-61
2024/04/06 05:26:41;;;;;;;11.57;5.95;;;;;;;;;;5038458;28;20037;-60
2024/04/06 05:29:07;;;;;;;13.50;6.10;;;;;;;;;;5024482;28;20493;-61
2024/04/06 05:31:33;;;;;;;13.35;5.95;;;;;;;;;;5009346;28;20041;-60
2024/04/06 05:33:59;;;;;;;11.00;5.65;;;;;;;;;;5028553;28;20476;-61
2024/04/06 05:36:24;;;;;;;13.85;5.30;;;;;;;;;;5028205;28;20515;-61
2024/04/06 05:38:50;;;;;;;15.50;6.45;;;;;;;;;;5028359;28;20064;-62
2024/04/06 05:41:16;;;;;;;13.80;6.30;;;;;;;;;;5028373;28;20523;-62
2024/04/06 05:43:42;;;;;;;12.55;6.38;;;;;;;;;;5027069;28;20045;-61
2024/04/06 05:46:07;;;;;;;16.88;5.95;;;;;;;;;;5026500;28;20049;-62
2024/04/06 05:48:33;;;;;;;17.42;6.55;;;;;;;;;;5030353;28;20036;-61
2024/04/06 05:51:00;;;;;;;11.52;6.22;;;;;;;;;;5026821;28;20124;-61
2024/04/06 05:53:25;;;;;;;13.15;5.93;;;;;;;;;;5026392;28;20266;-62
2024/04/06 05:55:51;;;;;;;12.35;6.57;;;;;;;;;;5028031;28;20029;-61
2024/04/06 05:58:17;;;;;;;13.35;6.95;;;;;;;;;;5042371;28;20029;-60
2024/04/06 06:00:43;;;;;;;14.23;6.65;;;;;;;;;;5042821;28;20497;-57
2024/04/06 06:03:08;;;;;;;17.70;6.53;;;;;;;;;;5027921;28;20509;-59
2024/04/06 06:05:34;;;;;;;14.02;6.68;;;;;;;;;;5027898;28;20503;-59
2024/04/06 06:08:00;;;;;;;19.63;8.90;;;;;;;;;;5031445;28;20486;-58
2024/04/06 06:10:26;;;;;;;17.98;7.25;;;;;;;;;;5027700;28;20080;-61
2024/04/06 06:12:52;;;;;;;13.35;6.70;;;;;;;;;;5027949;28;20491;-64
2024/04/06 06:15:18;;;;;;;17.83;6.50;;;;;;;;;;5027163;28;20204;-62
2024/04/06 06:17:43;;;;;;;17.77;6.55;;;;;;;;;;5026059;28;20022;-60
2024/04/06 06:20:09;;;;;;;15.20;7.13;;;;;;;;;;5034918;28;20048;-61
2024/04/06 06:22:35;;;;;;;21.15;7.68;;;;;;;;;;5025784;28;20040;-61
2024/04/06 06:25:01;;;;;;;16.02;6.72;;;;;;;;;;5027003;28;20049;-62
2024/04/06 06:27:32;;;;;;;14.95;7.38;;;;;;;;;;5027220;28;20420;-61
2024/04/06 06:29:59;;;;;;;18.42;7.70;;;;;;;;;;5026561;28;20037;-59
2024/04/06 06:32:25;;;;;;;12.30;6.75;;;;;;;;;;5042455;28;20501;-61
2024/04/06 06:34:50;;;;;;;15.77;7.47;;;;;;;;;;5042252;28;20079;-63
2024/04/06 06:37:16;;;;;;;13.60;6.70;;;;;;;;;;5025780;28;20175;-64
2024/04/06 06:39:42;;;;;;;20.02;8.52;;;;;;;;;;5035393;28;20068;-62
2024/04/06 06:42:09;;;;;;;12.20;6.20;;;;;;;;;;5025595;28;20713;-63
2024/04/06 06:44:34;;;;;;;11.02;6.18;;;;;;;;;;5027616;28;20049;-61
2024/04/06 06:47:01;;;;;;;16.48;7.45;;;;;;;;;;5026104;28;20409;-62
2024/04/06 06:49:27;;;;;;;14.90;7.53;;;;;;;;;;5026443;28;20033;-62
2024/04/06 06:51:54;;;;;;;12.85;6.75;;;;;;;;;;5027487;28;20497;-64
2024/04/06 06:54:19;;;;;;;16.88;7.05;;;;;;;;;;5042431;28;20099;-61
2024/04/06 06:56:45;;;;;;;15.93;7.43;;;;;;;;;;5025671;28;20029;-62
2024/04/06 06:59:11;;;;;;;14.27;7.40;;;;;;;;;;5024666;28;20037;-63
2024/04/06 07:01:36;;;;;;;13.07;7.60;;;;;;;;;;5005652;28;20124;-62
2024/04/06 07:04:03;;;;;;;21.40;6.85;;;;;;;;;;5005840;28;20046;-61
2024/04/06 07:06:29;;;;;;;13.55;6.57;;;;;;;;;;4989368;28;20053;-62
2024/04/06 07:08:54;;;;;;;18.73;7.00;;;;;;;;;;5005806;28;20061;-62
2024/04/06 07:11:20;;;;;;;14.40;7.10;;;;;;;;;;5024537;28;20410;-63
2024/04/06 07:13:46;;;;;;;13.05;7.03;;;;;;;;;;5041505;28;20500;-62
2024/04/06 07:16:12;;;;;;;13.73;7.63;;;;;;;;;;5020871;28;20563;-58
2024/04/06 07:18:39;;;;;;;19.05;7.85;;;;;;;;;;5024955;28;20046;-58
2024/04/06 07:21:10;;;;;;;18.63;7.85;;;;;;;;;;5025904;28;20037;-61
2024/04/06 07:23:37;;;;;;;16.58;7.88;;;;;;;;;;5041465;28;20052;-61
2024/04/06 07:26:03;;;;;;;20.92;7.45;;;;;;;;;;5025564;28;20040;-63
2024/04/06 07:28:28;;;;;;;16.02;7.80;;;;;;;;;;5025665;28;20509;-61
2024/04/06 07:30:54;;;;;;;15.23;6.68;;;;;;;;;;5004671;28;20049;-60
2024/04/06 07:33:20;;;;;;;18.27;7.72;;;;;;;;;;5004931;28;20175;-62
2024/04/06 07:35:45;;;;;;;15.60;7.38;;;;;;;;;;5005245;28;20052;-59
2024/04/06 07:38:11;;;;;;;15.77;7.78;;;;;;;;;;5006530;28;20387;-62
2024/04/06 07:40:37;;;;;;;14.27;7.78;;;;;;;;;;5006183;28;20419;-60
2024/04/06 07:43:02;;;;;;;14.20;8.43;;;;;;;;;;5025394;28;20118;-63
2024/04/06 07:45:29;;;;;;;17.42;7.30;;;;;;;;;;5023729;28;20037;-62
2024/04/06 07:47:55;;;;;;;18.95;7.30;;;;;;;;;;5026181;28;20040;-62
2024/04/06 07:50:20;;;;;;;20.67;7.60;;;;;;;;;;5041178;28;20033;-61
2024/04/06 07:52:46;;;;;;;17.17;8.13;;;;;;;;;;5023998;28;20067;-62
2024/04/06 07:55:12;;;;;;;20.65;7.93;;;;;;;;;;5025094;28;20140;-57
2024/04/06 07:57:38;;;;;;;14.60;7.65;;;;;;;;;;5025259;28;20207;-60
2024/04/06 08:00:04;;;;;;;16.85;6.90;;;;;;;;;;5024786;28;20048;-62
2024/04/06 08:02:31;;;;;;;17.15;7.10;;;;;;;;;;5023666;28;20540;-58
2024/04/06 08:04:57;;;;;;;12.63;7.22;;;;;;;;;;5024586;28;20049;-62
2024/04/06 08:07:23;;;;;;;12.60;7.30;;;;;;;;;;5025751;28;20037;-60
2024/04/06 08:09:49;;;;;;;17.35;7.60;;;;;;;;;;5025485;28;20062;-60
2024/04/06 08:12:15;;;;;;;14.80;7.78;;;;;;;;;;5024636;28;20034;-61
2024/04/06 08:14:41;;;;;;;13.93;7.25;;;;;;;;;;5023809;28;20536;-61
2024/04/06 08:17:06;;;;;;;18.67;7.82;;;;;;;;;;5025688;28;20826;-62
2024/04/06 08:19:33;;;;;;;14.35;7.40;;;;;;;;;;5007129;28;20472;-63
2024/04/06 08:22:00;;;;;;;15.52;7.40;;;;;;;;;;5024250;28;20090;-62
2024/04/06 08:24:25;;;;;;;17.27;8.35;;;;;;;;;;5028467;28;20033;-61
2024/04/06 08:26:51;;;;;;;14.43;7.32;;;;;;;;;;5029926;28;20120;-60
2024/04/06 08:29:17;;;;;;;15.63;7.07;;;;;;;;;;5029160;28;20474;-64
2024/04/06 08:31:42;;;;;;;15.20;7.35;;;;;;;;;;5029459;28;20061;-61
2024/04/06 08:34:08;;;;;;;16.40;7.32;;;;;;;;;;5029875;28;20033;-62
2024/04/06 08:36:34;;;;;;;15.48;7.82;;;;;;;;;;5029523;28;20033;-61
2024/04/06 08:39:01;;;;;;;17.52;7.43;;;;;;;;;;5011748;28;20043;-62
2024/04/06 08:41:28;;;;;;;17.65;8.10;;;;;;;;;;5029148;28;20470;-61
2024/04/06 08:43:58;;;;;;;18.15;6.60;;;;;;;;;;5027711;28;20041;-61
2024/04/06 08:46:25;;;;;;;14.80;7.65;;;;;;;;;;5044106;28;20060;-61
2024/04/06 08:48:50;;;;;;;19.05;8.40;;;;;;;;;;5027896;28;20073;-60
2024/04/06 08:51:17;;;;;;;17.20;7.03;;;;;;;;;;5027436;28;20050;-60
2024/04/06 08:53:43;;;;;;;13.40;7.10;;;;;;;;;;5028610;28;20037;-61
2024/04/06 08:56:09;;;;;;;16.67;7.80;;;;;;;;;;5012630;28;20034;-62
2024/04/06 08:58:34;;;;;;;15.15;8.18;;;;;;;;;;5007499;28;20129;-61
2024/04/06 09:01:02;;;;;;;15.65;7.32;;;;;;;;;;5033506;28;20029;-56
2024/04/06 09:03:29;;;;;;;18.63;7.78;;;;;;;;;;5028367;28;20410;-58
2024/04/06 09:05:54;;;;;;;16.88;7.53;;;;;;;;;;5028608;28;20044;-61
2024/04/06 09:08:20;;;;;;;18.33;8.20;;;;;;;;;;5026991;28;20845;-61
2024/04/06 09:10:47;;;;;;;20.05;8.30;;;;;;;;;;5026144;28;20141;-62
2024/04/06 09:13:13;;;;;;;16.13;7.30;;;;;;;;;;5028228;28;20052;-61
2024/04/06 09:15:39;;;;;;;14.25;7.85;;;;;;;;;;5043360;28;20033;-59
2024/04/06 09:18:06;;;;;;;15.75;8.95;;;;;;;;;;5026772;28;20115;-60
2024/04/06 09:20:31;;;;;;;17.50;8.18;;;;;;;;;;5008975;28;20044;-62
2024/04/06 09:22:58;;;;;;;21.48;9.05;;;;;;;;;;5026144;28;20041;-62
2024/04/06 09:25:24;;;;;;;20.55;8.07;;;;;;;;;;5032324;28;20829;-59
2024/04/06 09:27:50;;;;;;;21.33;9.23;;;;;;;;;;5028521;28;20038;-62
2024/04/06 09:30:18;;;;;;;15.52;7.50;;;;;;;;;;5026796;28;20122;-61
2024/04/06 09:32:45;;;;;;;17.65;8.40;;;;;;;;;;5023256;28;20030;-63
2024/04/06 09:35:12;;;;;;;13.63;7.22;;;;;;;;;;5006515;28;20425;-62
2024/04/06 09:37:38;;;;;;;16.52;8.07;;;;;;;;;;5023654;28;20037;-61
2024/04/06 09:40:08;;;;;;;16.05;7.63;;;;;;;;;;5007243;28;20095;-57
2024/04/06 09:42:37;;;;;;;18.33;7.75;;;;;;;;;;5011533;28;20132;-61
2024/04/06 09:45:05;;;;;;;15.00;8.32;;;;;;;;;;5043640;28;20033;-60
2024/04/06 09:47:31;;;;;;;16.42;7.65;;;;;;;;;;5028051;28;20512;-59
2024/04/06 09:50:00;;;;;;;15.57;7.43;;;;;;;;;;5028184;28;20037;-59
2024/04/06 09:52:26;;;;;;;17.80;8.57;;;;;;;;;;5043815;28;20140;-61
2024/04/06 09:54:52;;;;;;;17.67;8.50;;;;;;;;;;5025878;28;20208;-58
2024/04/06 09:57:19;;;;;;;17.55;8.43;;;;;;;;;;5027580;28;20048;-60
2024/04/06 09:59:45;;;;;;;18.38;8.30;;;;;;;;;;5028456;28;20026;-64
2024/04/06 10:02:20;;;;;;;20.73;8.35;;;;;;;;;;5028292;28;20121;-59
2024/04/06 10:04:53;;;;;;;15.32;7.50;;;;;;;;;;5028216;28;20037;-58
2024/04/06 10:07:25;;;;;;;13.68;7.53;;;;;;;;;;5028252;28;20124;-60
2024/04/06 10:09:58;;;;;;;22.65;8.38;;;;;;;;;;5027737;28;20047;-61
2024/04/06 10:12:35;;;;;;;20.83;8.80;;;;;;;;;;5027517;28;20029;-55
2024/04/06 10:15:05;;;;;;;19.50;8.77;;;;;;;;;;5025855;28;20125;-60
2024/04/06 10:17:40;;;;;;;15.93;8.00;;;;;;;;;;5026774;28;20076;-62
2024/04/06 10:20:08;;;;;;;15.48;8.52;;;;;;;;;;5028077;28;20128;-62
2024/04/06 10:22:42;;;;;;;16.35;7.72;;;;;;;;;;5026127;28;20037;-61
2024/04/06 10:25:09;;;;;;;18.38;8.88;;;;;;;;;;5026967;28;20041;-57
2024/04/06 10:27:37;;;;;;;19.67;9.10;;;;;;;;;;5027299;28;20803;-57
2024/04/06 10:30:06;;;;;;;16.55;7.68;;;;;;;;;;5008993;28;20037;-59
2024/04/06 10:32:32;;;;;;;18.50;8.73;;;;;;;;;;5026182;28;20072;-57
2024/04/06 10:34:58;;;;;;;17.52;8.13;;;;;;;;;;5016801;28;20033;-56
2024/04/06 10:37:24;;;;;;;15.07;8.20;;;;;;;;;;5022482;28;20084;-54
2024/04/06 10:39:50;;;;;;;15.45;8.18;;;;;;;;;;5007313;28;20038;-54
2024/04/06 10:42:15;;;;;;;19.92;9.77;;;;;;;;;;5022330;28;20042;-54
2024/04/06 10:44:41;;;;;;;15.88;8.52;;;;;;;;;;5005324;28;20048;-56
2024/04/06 10:47:10;;;;;;;16.40;8.63;;;;;;;;;;5005983;28;20061;-58
2024/04/06 10:49:36;;;;;;;15.18;8.13;;;;;;;;;;5007119;28;20048;-60
2024/04/06 10:52:02;;;;;;;17.27;8.55;;;;;;;;;;4989361;28;20672;-61
2024/04/06 10:54:28;;;;;;;15.63;7.95;;;;;;;;;;5009652;28;20061;-62
2024/04/06 10:56:54;;;;;;;16.88;8.38;;;;;;;;;;5011125;28;20080;-62
2024/04/06 10:59:20;;;;;;;16.88;8.70;;;;;;;;;;5022118;28;20038;-59
2024/04/06 11:01:46;;;;;;;16.10;7.07;;;;;;;;;;5007178;28;20045;-57
2024/04/06 11:04:12;;;;;;;14.10;6.70;;;;;;;;;;5007185;28;20514;-55
2024/04/06 11:06:40;;;;;;;22.45;7.13;;;;;;;;;;5033443;28;20555;-59
2024/04/06 11:09:10;;;;;;;16.00;7.80;;;;;;;;;;5023665;28;20037;-58
2024/04/06 11:11:39;;;;;;;19.60;7.07;;;;;;;;;;5024727;28;20033;-55
2024/04/06 11:14:07;;;;;;;19.17;7.32;;;;;;;;;;5027044;28;20496;-57
2024/04/06 11:16:32;;;;;;;14.73;7.85;;;;;;;;;;5021775;28;20072;-55
2024/04/06 11:18:58;;;;;;;13.63;7.07;;;;;;;;;;5005717;28;20054;-61
2024/04/06 11:21:24;;;;;;;14.60;7.82;;;;;;;;;;5035692;28;20042;-60
2024/04/06 11:23:50;;;;;;;13.30;7.60;;;;;;;;;;5026188;28;20037;-62
2024/04/06 11:26:20;;;;;;;16.63;7.78;;;;;;;;;;5025809;28;20044;-62
2024/04/06 11:28:46;;;;;;;25.38;8.15;;;;;;;;;;5007754;28;20044;-64
2024/04/06 11:31:12;;;;;;;15.55;7.47;;;;;;;;;;5026245;28;20033;-62
2024/04/06 11:33:38;;;;;;;16.88;7.65;;;;;;;;;;5026053;28;20783;-63
2024/04/06 11:36:04;;;;;;;14.45;7.45;;;;;;;;;;5025999;28;20119;-63
2024/04/06 11:38:30;;;;;;;14.65;7.65;;;;;;;;;;5025621;28;20033;-62
2024/04/06 11:40:58;;;;;;;14.48;7.82;;;;;;;;;;5007931;28;20041;-64
2024/04/06 11:43:24;;;;;;;21.48;10.10;;;;;;;;;;5024393;28;20029;-63
2024/04/06 11:45:51;;;;;;;16.77;7.85;;;;;;;;;;5026588;28;20044;-63
2024/04/06 11:48:18;;;;;;;17.80;8.88;;;;;;;;;;5025998;28;20516;-63
2024/04/06 11:50:44;;;;;;;17.63;8.20;;;;;;;;;;5026253;28;20547;-62
2024/04/06 11:53:10;;;;;;;14.70;8.07;;;;;;;;;;5041452;28;20033;-62
2024/04/06 11:55:36;;;;;;;16.73;8.23;;;;;;;;;;5024574;28;20033;-62
2024/04/06 11:58:05;;;;;;;21.55;8.30;;;;;;;;;;5025546;28;20036;-61
2024/04/06 12:00:30;;;;;;;18.98;8.35;;;;;;;;;;5041289;28;20091;-61
2024/04/06 12:02:56;;;;;;;14.57;7.68;;;;;;;;;;5024343;28;20064;-61
2024/04/06 12:05:22;;;;;;;16.60;8.05;;;;;;;;;;5024885;28;20520;-62
2024/04/06 12:07:48;;;;;;;17.52;7.88;;;;;;;;;;5020948;28;20730;-63
2024/04/06 12:10:14;;;;;;;15.68;8.05;;;;;;;;;;5004664;28;20088;-62
2024/04/06 12:12:40;;;;;;;15.77;7.45;;;;;;;;;;5021114;28;20510;-61
2024/04/06 12:15:06;;;;;;;13.07;8.07;;;;;;;;;;5004848;28;20033;-61
2024/04/06 12:17:32;;;;;;;22.83;9.60;;;;;;;;;;5022300;28;20128;-62
2024/04/06 12:19:58;;;;;;;15.48;7.88;;;;;;;;;;5020670;28;20121;-61
2024/04/06 12:22:23;;;;;;;18.35;10.55;;;;;;;;;;4987971;28;20068;-61
2024/04/06 12:24:50;;;;;;;18.00;8.82;;;;;;;;;;5020592;28;20069;-62
2024/04/06 12:27:17;;;;;;;20.88;9.18;;;;;;;;;;4987989;28;20049;-62
2024/04/06 12:29:46;;;;;;;18.15;8.70;;;;;;;;;;5020655;28;20199;-60
2024/04/06 12:32:12;;;;;;;24.95;9.98;;;;;;;;;;5025534;28;20059;-62
2024/04/06 12:34:38;;;;;;;13.35;8.52;;;;;;;;;;5024286;28;20477;-61
2024/04/06 12:37:09;;;;;;;20.92;8.60;;;;;;;;;;5025520;28;20120;-59
2024/04/06 12:39:36;;;;;;;30.10;8.90;;;;;;;;;;5032709;28;20142;-61
2024/04/06 12:42:03;;;;;;;20.27;7.95;;;;;;;;;;5039438;28;20135;-61
2024/04/06 12:44:29;;;;;;;17.00;8.35;;;;;;;;;;5025434;28;20038;-61
2024/04/06 12:46:55;;;;;;;16.17;8.23;;;;;;;;;;5040375;28;20034;-61
2024/04/06 12:49:21;;;;;;;23.42;9.27;;;;;;;;;;5025548;28;20042;-61
2024/04/06 12:51:46;;;;;;;17.17;8.32;;;;;;;;;;5040613;28;20044;-62
2024/04/06 12:54:12;;;;;;;18.08;8.30;;;;;;;;;;5023766;28;20038;-59
2024/04/06 12:57:36;;;;;;;21.00;8.93;;;;;;;;;;5025516;28;20029;-61
2024/04/06 12:59:23;;;;;;;13.77;7.90;;;;;;;;;;5025842;28;20045;-58
2024/04/06 13:01:50;;;;;;;21.40;8.35;;;;;;;;;;5025982;28;20038;-59
2024/04/06 13:04:18;;;;;;;17.80;8.10;;;;;;;;;;5023286;28;20505;-58
2024/04/06 13:06:44;;;;;;;25.58;10.02;;;;;;;;;;5024324;28;20033;-60
2024/04/06 13:09:10;;;;;;;19.95;8.80;;;;;;;;;;5025910;28;20043;-59
2024/04/06 13:11:39;;;;;;;17.70;8.13;;;;;;;;;;5010366;28;20037;-60
2024/04/06 13:14:05;;;;;;;24.87;8.73;;;;;;;;;;5027238;28;20126;-60
2024/04/06 13:16:30;;;;;;;22.17;8.73;;;;;;;;;;5028529;28;20072;-61
2024/04/06 13:18:58;;;;;;;17.33;8.93;;;;;;;;;;5028818;28;20107;-61
2024/04/06 13:21:24;;;;;;;19.33;9.15;;;;;;;;;;5026218;28;20045;-60
2024/04/06 13:23:50;;;;;;;18.35;8.27;;;;;;;;;;5028296;28;20037;-58
2024/04/06 13:26:16;;;;;;;18.38;8.25;;;;;;;;;;5044514;28;20041;-57
2024/04/06 13:28:42;;;;;;;18.85;8.63;;;;;;;;;;5044737;28;20044;-61
2024/04/06 13:31:08;;;;;;;22.50;9.18;;;;;;;;;;5028875;28;20563;-62
2024/04/06 13:33:36;;;;;;;17.20;8.82;;;;;;;;;;5026951;28;20037;-60
2024/04/06 13:36:03;;;;;;;20.33;8.57;;;;;;;;;;5027348;28;20570;-61
2024/04/06 13:38:29;;;;;;;18.10;8.35;;;;;;;;;;5044154;28;20069;-62
2024/04/06 13:40:55;;;;;;;15.88;8.82;;;;;;;;;;5027091;28;20170;-61
2024/04/06 13:43:21;;;;;;;18.67;9.77;;;;;;;;;;5025616;28;20033;-60
2024/04/06 13:45:47;;;;;;;16.35;8.48;;;;;;;;;;5027379;28;20119;-61
2024/04/06 13:48:16;;;;;;;21.63;8.80;;;;;;;;;;5028342;28;20420;-63
2024/04/06 13:50:42;;;;;;;21.25;8.57;;;;;;;;;;5043360;28;20420;-60
2024/04/06 13:53:08;;;;;;;18.52;9.10;;;;;;;;;;5026673;28;20509;-59
2024/04/06 13:55:33;;;;;;;32.80;9.02;;;;;;;;;;5042509;28;20045;-63
2024/04/06 13:58:00;;;;;;;23.05;10.73;;;;;;;;;;5027093;28;20037;-60
2024/04/06 14:00:26;;;;;;;21.90;10.50;;;;;;;;;;5028295;28;20420;-61
2024/04/06 14:02:52;;;;;;;21.13;10.25;;;;;;;;;;5026122;28;20044;-62
2024/04/06 14:05:18;;;;;;;24.80;10.88;;;;;;;;;;5027018;28;20045;-62
2024/04/06 14:07:46;;;;;;;21.48;11.18;;;;;;;;;;5027990;28;20121;-61
2024/04/06 14:10:14;;;;;;;19.02;9.73;;;;;;;;;;5025537;28;20107;-61
2024/04/06 14:12:40;;;;;;;21.80;9.13;;;;;;;;;;5024936;28;20057;-61
2024/04/06 14:15:07;;;;;;;16.77;10.10;;;;;;;;;;5026273;28;20595;-62
2024/04/06 14:17:33;;;;;;;23.23;9.18;;;;;;;;;;5025896;28;20034;-63
2024/04/06 14:19:59;;;;;;;18.15;8.55;;;;;;;;;;5027648;28;20071;-61
2024/04/06 14:22:24;;;;;;;20.38;9.00;;;;;;;;;;5025604;28;20049;-63
2024/04/06 14:24:50;;;;;;;18.38;8.70;;;;;;;;;;5027153;28;20037;-63
2024/04/06 14:27:16;;;;;;;18.67;8.65;;;;;;;;;;5042418;28;20418;-60
2024/04/06 14:29:41;;;;;;;18.90;9.15;;;;;;;;;;5025951;28;20033;-62